Time;durP1;ratioP1;P1;durP2;ratioP2;P2;SDS_P1;SDS_P2;PMS_P1;PMS_P2;Temp;Humidity;BMP_temperature;BMP_pressure;BME280_temperature;BME280_humidity;BME280_pressure;Samples;Min_cycle;Max_cycle;Signal;HPM_P1;HPM_P2
2022/03/10 00:01:20;;;;;;;;;;;8.80;88.70;;;;;;5052844;28;19908;-62
2022/03/10 00:03:45;;;;;;;;;;;8.70;87.50;;;;;;5052858;28;20362;-64
2022/03/10 00:06:11;;;;;;;;;;;8.70;87.80;;;;;;5053158;28;19909;-63
2022/03/10 00:08:36;;;;;;;;;;;8.70;87.70;;;;;;5053130;28;19913;-62
2022/03/10 00:11:02;;;;;;;;;;;8.60;87.90;;;;;;5052912;28;19909;-63
2022/03/10 00:13:30;;;;;;;;;;;8.60;88.70;;;;;;5052625;28;19947;-64
2022/03/10 00:15:56;;;;;;;;;;;8.60;87.90;;;;;;5052771;28;19917;-64
2022/03/10 00:18:21;;;;;;;;;;;8.60;88.20;;;;;;5052476;28;19936;-63
2022/03/10 00:20:47;;;;;;;;;;;8.60;88.20;;;;;;5053101;28;19913;-63
2022/03/10 00:23:12;;;;;;;;;;;8.60;87.90;;;;;;5051610;28;20027;-62
2022/03/10 00:25:38;;;;;;;;;;;8.60;88.00;;;;;;5052305;28;20030;-62
2022/03/10 00:28:03;;;;;;;;;;;8.60;88.30;;;;;;5052091;28;19915;-62
2022/03/10 00:30:29;;;;;;;;;;;8.60;88.10;;;;;;5052426;28;19921;-64
2022/03/10 00:32:54;;;;;;;;;;;8.60;88.60;;;;;;5052876;28;20366;-63
2022/03/10 00:35:21;;;;;;;;;;;8.60;87.80;;;;;;5051884;28;19909;-62
2022/03/10 00:37:47;;;;;;;;;;;8.60;88.30;;;;;;5051842;28;19913;-63
2022/03/10 00:40:12;;;;;;;;;;;8.50;88.30;;;;;;5052424;28;20353;-63
2022/03/10 00:42:38;;;;;;;;;;;8.50;88.40;;;;;;5052364;28;19966;-63
2022/03/10 00:45:04;;;;;;;;;;;8.50;88.70;;;;;;5049023;28;19963;-63
2022/03/10 00:47:30;;;;;;;;;;;8.50;89.10;;;;;;5051914;28;19936;-63
2022/03/10 00:49:56;;;;;;;;;;;8.40;88.80;;;;;;5052075;28;19927;-62
2022/03/10 00:52:21;;;;;;;;;;;8.40;89.40;;;;;;5051937;28;20274;-62
2022/03/10 00:54:47;;;;;;;;;;;8.50;89.30;;;;;;5051621;28;19917;-64
2022/03/10 00:57:12;;;;;;;;;;;8.40;89.90;;;;;;5051619;28;19908;-63
2022/03/10 00:59:38;;;;;;;;;;;8.40;89.20;;;;;;5052359;28;20007;-63
2022/03/10 01:02:03;;;;;;;;;;;8.40;89.90;;;;;;5051915;28;20346;-62
2022/03/10 01:04:29;;;;;;;;;;;8.40;89.00;;;;;;5051730;28;19913;-60
2022/03/10 01:06:54;;;;;;;;;;;8.40;88.90;;;;;;5051505;28;20412;-63
2022/03/10 01:09:20;;;;;;;;;;;8.30;89.20;;;;;;5052056;28;19909;-63
2022/03/10 01:11:45;;;;;;;;;;;8.30;90.20;;;;;;5052288;28;20397;-63
2022/03/10 01:14:11;;;;;;;;;;;8.30;90.00;;;;;;5051314;28;19913;-63
2022/03/10 01:16:36;;;;;;;;;;;8.30;90.00;;;;;;5051705;28;20016;-63
2022/03/10 01:19:02;;;;;;;;;;;8.30;89.70;;;;;;5051280;28;19920;-61
2022/03/10 01:21:27;;;;;;;;;;;8.20;89.90;;;;;;5050903;28;19955;-63
2022/03/10 01:23:53;;;;;;;;;;;8.20;89.60;;;;;;5052426;28;20352;-63
2022/03/10 01:26:18;;;;;;;;;;;8.20;89.40;;;;;;5051719;28;19917;-63
2022/03/10 01:28:44;;;;;;;;;;;8.20;90.10;;;;;;5051400;28;20335;-62
2022/03/10 01:31:10;;;;;;;;;;;8.20;89.70;;;;;;5051346;28;19913;-62
2022/03/10 01:33:35;;;;;;;;;;;8.20;89.50;;;;;;5051313;28;19912;-63
2022/03/10 01:36:01;;;;;;;;;;;8.10;89.20;;;;;;5051501;28;19908;-63
2022/03/10 01:38:26;;;;;;;;;;;8.10;90.40;;;;;;5051180;28;19924;-63
2022/03/10 01:40:52;;;;;;;;;;;8.10;89.80;;;;;;5051203;28;19954;-63
2022/03/10 01:43:17;;;;;;;;;;;8.00;89.90;;;;;;5051176;28;19921;-63
2022/03/10 01:45:43;;;;;;;;;;;7.90;90.60;;;;;;5050578;28;19912;-64
2022/03/10 01:48:08;;;;;;;;;;;7.90;90.10;;;;;;5051418;28;19963;-64
2022/03/10 01:50:34;;;;;;;;;;;7.90;90.30;;;;;;5051059;28;19908;-65
2022/03/10 01:53:02;;;;;;;;;;;7.90;90.20;;;;;;5050664;28;19913;-64
2022/03/10 01:55:28;;;;;;;;;;;7.80;89.90;;;;;;5050492;28;19921;-63
2022/03/10 01:57:54;;;;;;;;;;;7.80;90.70;;;;;;5050814;28;20282;-64
2022/03/10 02:00:19;;;;;;;;;;;7.80;90.30;;;;;;5050992;28;19951;-63
2022/03/10 02:02:45;;;;;;;;;;;7.80;90.10;;;;;;5051479;28;19960;-63
2022/03/10 02:05:11;;;;;;;;;;;7.80;90.60;;;;;;5050526;28;19999;-65
2022/03/10 02:10:23;;;;;;;;;;;7.80;90.30;;;;;;5051098;28;20381;-63
2022/03/10 02:12:50;;;;;;;;;;;7.70;90.60;;;;;;5050075;28;19912;-63
2022/03/10 02:18:05;;;;;;;;;;;7.70;90.50;;;;;;5051990;28;20000;-64
2022/03/10 02:20:31;;;;;;;;;;;7.70;90.30;;;;;;5050115;28;19924;-62
2022/03/10 02:22:56;;;;;;;;;;;7.70;90.50;;;;;;5050313;28;19912;-61
2022/03/10 02:25:23;;;;;;;;;;;7.70;90.80;;;;;;5050395;28;19999;-63
2022/03/10 02:27:49;;;;;;;;;;;7.60;90.80;;;;;;5049335;28;19913;-63
2022/03/10 02:30:15;;;;;;;;;;;7.60;90.80;;;;;;5050691;28;20282;-62
2022/03/10 02:32:40;;;;;;;;;;;7.60;91.10;;;;;;5050977;28;19908;-63
2022/03/10 02:35:06;;;;;;;;;;;7.50;90.70;;;;;;5050092;28;20441;-60
2022/03/10 02:37:32;;;;;;;;;;;7.60;90.60;;;;;;5050567;28;20046;-63
2022/03/10 02:39:57;;;;;;;;;;;7.60;90.60;;;;;;5050239;28;20007;-64
2022/03/10 02:42:23;;;;;;;;;;;7.60;91.00;;;;;;5049133;28;19915;-63
2022/03/10 02:44:48;;;;;;;;;;;7.60;90.80;;;;;;5050893;28;19916;-63
2022/03/10 02:47:15;;;;;;;;;;;7.60;91.10;;;;;;5049946;28;19913;-64
2022/03/10 02:49:40;;;;;;;;;;;7.50;90.70;;;;;;5049842;28;19920;-64
2022/03/10 02:52:06;;;;;;;;;;;7.50;90.80;;;;;;5050262;28;19920;-62
2022/03/10 02:54:32;;;;;;;;;;;7.50;91.10;;;;;;5050583;28;19921;-63
2022/03/10 02:56:58;;;;;;;;;;;7.40;91.00;;;;;;5051008;28;19913;-60
2022/03/10 02:59:23;;;;;;;;;;;7.40;90.70;;;;;;5049894;28;19921;-64
2022/03/10 03:01:49;;;;;;;;;;;7.40;90.90;;;;;;5050098;28;20630;-63
2022/03/10 03:04:15;;;;;;;;;;;7.40;90.70;;;;;;5049654;28;19916;-63
2022/03/10 03:06:40;;;;;;;;;;;7.40;91.40;;;;;;5050157;28;19920;-63
2022/03/10 03:09:06;;;;;;;;;;;7.40;91.30;;;;;;5051016;28;19913;-61
2022/03/10 03:11:31;;;;;;;;;;;7.40;90.90;;;;;;5049774;28;19913;-63
2022/03/10 03:13:57;;;;;;;;;;;7.30;91.10;;;;;;5050456;28;19920;-63
2022/03/10 03:16:24;;;;;;;;;;;7.30;91.20;;;;;;5049701;28;19913;-63
2022/03/10 03:18:50;;;;;;;;;;;7.30;91.20;;;;;;5049449;28;20300;-62
2022/03/10 03:21:15;;;;;;;;;;;7.20;91.10;;;;;;5053841;28;20008;-62
2022/03/10 03:23:41;;;;;;;;;;;7.20;91.20;;;;;;5054654;28;20015;-63
2022/03/10 03:26:06;;;;;;;;;;;7.20;91.50;;;;;;5053660;28;19947;-64
2022/03/10 03:28:32;;;;;;;;;;;7.20;91.10;;;;;;5053548;28;20286;-64
2022/03/10 03:30:57;;;;;;;;;;;7.20;90.90;;;;;;5053708;28;19924;-64
2022/03/10 03:33:23;;;;;;;;;;;7.10;91.30;;;;;;5053679;28;19909;-62
2022/03/10 03:35:48;;;;;;;;;;;7.10;91.30;;;;;;5052118;28;20285;-61
2022/03/10 03:38:14;;;;;;;;;;;7.10;91.30;;;;;;5053223;28;19913;-62
2022/03/10 03:40:40;;;;;;;;;;;7.10;91.40;;;;;;5053382;28;19944;-64
2022/03/10 03:43:06;;;;;;;;;;;7.00;91.50;;;;;;5053450;28;19912;-64
2022/03/10 03:45:32;;;;;;;;;;;7.00;91.10;;;;;;5053657;28;19921;-63
2022/03/10 03:47:57;;;;;;;;;;;7.00;91.80;;;;;;5053713;28;20293;-63
2022/03/10 03:50:23;;;;;;;;;;;7.00;91.80;;;;;;5053037;28;20062;-62
2022/03/10 03:52:48;;;;;;;;;;;7.00;91.50;;;;;;5052911;28;20373;-63
2022/03/10 03:55:14;;;;;;;;;;;6.90;91.70;;;;;;5052897;28;19920;-64
2022/03/10 03:57:40;;;;;;;;;;;6.90;92.00;;;;;;5053047;28;19917;-61
2022/03/10 04:00:07;;;;;;;;;;;6.90;91.90;;;;;;5053679;28;19921;-63
2022/03/10 04:02:32;;;;;;;;;;;6.90;92.20;;;;;;5052972;28;20302;-62
2022/03/10 04:04:58;;;;;;;;;;;6.90;91.60;;;;;;5053208;28;20477;-63
2022/03/10 04:07:23;;;;;;;;;;;6.80;91.60;;;;;;5052734;28;19917;-62
2022/03/10 04:09:49;;;;;;;;;;;6.80;91.90;;;;;;5052824;28;19913;-63
2022/03/10 04:12:14;;;;;;;;;;;6.80;91.90;;;;;;5053013;28;19913;-63
2022/03/10 04:14:40;;;;;;;;;;;6.80;91.90;;;;;;5051786;28;19918;-64
2022/03/10 04:17:06;;;;;;;;;;;6.80;91.80;;;;;;5052268;28;19919;-64
2022/03/10 04:19:31;;;;;;;;;;;6.80;92.10;;;;;;5052655;28;19921;-64
2022/03/10 04:21:57;;;;;;;;;;;6.80;91.90;;;;;;5053064;28;19919;-62
2022/03/10 04:24:22;;;;;;;;;;;6.70;92.20;;;;;;5052956;28;20277;-62
2022/03/10 04:26:48;;;;;;;;;;;6.80;92.10;;;;;;5051816;28;19953;-64
2022/03/10 04:29:14;;;;;;;;;;;6.80;91.80;;;;;;5052201;28;19913;-64
2022/03/10 04:31:40;;;;;;;;;;;6.80;92.10;;;;;;5051284;28;19913;-64
2022/03/10 04:34:05;;;;;;;;;;;6.80;92.10;;;;;;5052429;28;19920;-64
2022/03/10 04:36:31;;;;;;;;;;;6.80;91.90;;;;;;5052353;28;19921;-64
2022/03/10 04:38:57;;;;;;;;;;;6.70;91.70;;;;;;5053713;28;19932;-63
2022/03/10 04:41:22;;;;;;;;;;;6.70;92.00;;;;;;5052223;28;19920;-63
2022/03/10 04:43:48;;;;;;;;;;;6.70;91.80;;;;;;5052075;28;19913;-63
2022/03/10 04:46:13;;;;;;;;;;;6.70;92.20;;;;;;5051753;28;19916;-62
2022/03/10 04:48:39;;;;;;;;;;;6.70;91.80;;;;;;5051052;28;19920;-64
2022/03/10 04:51:05;;;;;;;;;;;6.70;92.00;;;;;;5048922;28;19913;-63
2022/03/10 04:53:30;;;;;;;;;;;6.60;92.10;;;;;;5051957;28;20320;-62
2022/03/10 04:55:56;;;;;;;;;;;6.60;92.00;;;;;;5051764;28;20352;-62
2022/03/10 04:58:21;;;;;;;;;;;6.60;92.60;;;;;;5052462;28;19913;-63
2022/03/10 05:00:47;;;;;;;;;;;6.60;92.20;;;;;;5051464;28;20692;-63
2022/03/10 05:03:13;;;;;;;;;;;6.50;92.10;;;;;;5052288;28;19909;-63
2022/03/10 05:05:39;;;;;;;;;;;6.60;92.80;;;;;;5052363;28;19915;-63
2022/03/10 05:08:04;;;;;;;;;;;6.50;92.20;;;;;;5050514;28;19913;-62
2022/03/10 05:10:30;;;;;;;;;;;6.50;92.50;;;;;;5051652;28;19913;-63
2022/03/10 05:12:57;;;;;;;;;;;6.50;92.50;;;;;;5051705;28;19917;-61
2022/03/10 05:15:23;;;;;;;;;;;6.50;92.30;;;;;;5051241;28;19912;-63
2022/03/10 05:17:49;;;;;;;;;;;6.50;92.70;;;;;;5050336;28;19952;-61
2022/03/10 05:20:15;;;;;;;;;;;6.50;93.10;;;;;;5051637;28;19970;-62
2022/03/10 05:22:51;;;;;;;;;;;6.50;92.60;;;;;;5051325;28;20658;-63
2022/03/10 05:25:17;;;;;;;;;;;6.50;93.00;;;;;;5050804;28;19921;-64
2022/03/10 05:27:43;;;;;;;;;;;6.50;92.80;;;;;;5050935;28;19952;-64
2022/03/10 05:30:09;;;;;;;;;;;6.50;93.00;;;;;;5052277;28;19962;-63
2022/03/10 05:32:35;;;;;;;;;;;6.50;92.70;;;;;;5051386;28;19913;-63
2022/03/10 05:35:02;;;;;;;;;;;6.50;93.10;;;;;;5050184;28;19962;-62
2022/03/10 05:37:28;;;;;;;;;;;6.50;93.00;;;;;;5051334;28;19947;-62
2022/03/10 05:39:54;;;;;;;;;;;6.50;93.40;;;;;;5051445;28;19928;-63
2022/03/10 05:42:19;;;;;;;;;;;6.50;93.10;;;;;;5050382;28;19909;-63
2022/03/10 05:44:45;;;;;;;;;;;6.50;93.30;;;;;;5051781;28;19917;-62
2022/03/10 05:47:10;;;;;;;;;;;6.50;93.30;;;;;;5050811;28;20011;-62
2022/03/10 05:49:36;;;;;;;;;;;6.50;93.70;;;;;;5050829;28;20290;-62
2022/03/10 05:52:02;;;;;;;;;;;6.50;93.40;;;;;;5050700;28;20014;-63
2022/03/10 05:54:28;;;;;;;;;;;6.50;93.20;;;;;;5051193;28;19920;-62
2022/03/10 05:56:53;;;;;;;;;;;6.50;93.40;;;;;;5051516;28;20437;-61
2022/03/10 05:59:19;;;;;;;;;;;6.50;93.60;;;;;;5050704;28;19917;-60
2022/03/10 06:01:45;;;;;;;;;;;6.50;93.60;;;;;;5050423;28;19913;-61
2022/03/10 06:04:11;;;;;;;;;;;6.50;93.70;;;;;;5050603;28;19908;-63
2022/03/10 06:06:36;;;;;;;;;;;6.50;93.70;;;;;;5050338;28;20416;-63
2022/03/10 06:09:02;;;;;;;;;;;6.50;93.80;;;;;;5050887;28;19954;-64
2022/03/10 06:11:27;;;;;;;;;;;6.50;93.60;;;;;;5049362;28;19954;-62
2022/03/10 06:13:53;;;;;;;;;;;6.50;93.70;;;;;;5049985;28;19920;-63
2022/03/10 06:16:18;;;;;;;;;;;6.50;93.80;;;;;;5049977;28;19920;-64
2022/03/10 06:18:44;;;;;;;;;;;6.50;94.00;;;;;;5050199;28;19951;-62
2022/03/10 06:21:09;;;;;;;;;;;6.50;94.10;;;;;;5050137;28;19920;-63
2022/03/10 06:23:35;;;;;;;;;;;6.50;94.00;;;;;;5050346;28;19917;-62
2022/03/10 06:26:00;;;;;;;;;;;6.40;94.10;;;;;;5049592;28;19909;-62
2022/03/10 06:28:26;;;;;;;;;;;6.40;93.90;;;;;;5049924;28;19927;-63
2022/03/10 06:30:51;;;;;;;;;;;6.40;94.10;;;;;;5050098;28;19988;-61
2022/03/10 06:33:17;;;;;;;;;;;6.40;94.10;;;;;;5050128;28;19913;-61
2022/03/10 06:35:42;;;;;;;;;;;6.50;94.50;;;;;;5050385;28;19959;-60
2022/03/10 06:38:08;;;;;;;;;;;6.40;94.20;;;;;;5049059;28;19923;-60
2022/03/10 06:40:34;;;;;;;;;;;6.50;94.40;;;;;;5046153;28;19928;-60
2022/03/10 06:42:59;;;;;;;;;;;6.40;94.70;;;;;;5049105;28;19916;-58
2022/03/10 06:45:25;;;;;;;;;;;6.50;94.60;;;;;;5040125;28;20281;-60
2022/03/10 06:47:50;;;;;;;;;;;6.40;94.50;;;;;;5048302;28;20270;-63
2022/03/10 06:50:16;;;;;;;;;;;6.50;94.80;;;;;;5046547;28;19921;-63
2022/03/10 06:52:42;;;;;;;;;;;6.50;94.60;;;;;;5046537;28;19988;-63
2022/03/10 06:55:07;;;;;;;;;;;6.50;94.70;;;;;;5049367;28;20019;-64
2022/03/10 06:57:33;;;;;;;;;;;6.60;95.00;;;;;;5050942;28;19928;-62
2022/03/10 06:59:58;;;;;;;;;;;6.60;94.90;;;;;;5039761;28;20454;-62
2022/03/10 07:02:24;;;;;;;;;;;6.60;95.20;;;;;;5038898;28;19913;-64
2022/03/10 07:04:50;;;;;;;;;;;6.60;94.80;;;;;;5043625;28;20039;-63
2022/03/10 07:07:15;;;;;;;;;;;6.60;94.90;;;;;;5051570;28;19912;-63
2022/03/10 07:09:41;;;;;;;;;;;6.70;95.30;;;;;;5048062;28;20067;-65
2022/03/10 07:12:08;;;;;;;;;;;6.70;95.20;;;;;;5053847;28;19971;-64
2022/03/10 07:14:34;;;;;;;;;;;6.70;95.40;;;;;;5050248;28;20369;-63
2022/03/10 07:16:59;;;;;;;;;;;6.70;95.60;;;;;;5050065;28;19923;-61
2022/03/10 07:19:25;;;;;;;;;;;6.70;95.50;;;;;;5050034;28;19921;-63
2022/03/10 07:21:50;;;;;;;;;;;6.70;95.20;;;;;;5053180;28;19912;-62
2022/03/10 07:24:16;;;;;;;;;;;6.80;95.30;;;;;;5051638;28;19920;-60
2022/03/10 07:26:42;;;;;;;;;;;6.90;95.80;;;;;;5045152;28;19951;-61
2022/03/10 07:29:07;;;;;;;;;;;6.90;95.50;;;;;;5049162;28;19912;-60
2022/03/10 07:31:33;;;;;;;;;;;6.90;95.50;;;;;;5050537;28;20304;-60
2022/03/10 07:33:58;;;;;;;;;;;7.00;95.50;;;;;;5050267;28;20393;-60
2022/03/10 07:36:24;;;;;;;;;;;7.00;95.50;;;;;;5050827;28;20512;-62
2022/03/10 07:38:49;;;;;;;;;;;7.10;95.50;;;;;;5050465;28;19974;-62
2022/03/10 07:41:15;;;;;;;;;;;7.10;95.90;;;;;;5044829;28;19917;-61
2022/03/10 07:43:41;;;;;;;;;;;7.10;95.80;;;;;;5050527;28;19999;-62
2022/03/10 07:46:06;;;;;;;;;;;7.10;95.90;;;;;;5049978;28;19917;-61
2022/03/10 07:48:33;;;;;;;;;;;7.10;96.00;;;;;;5050322;28;19913;-62
2022/03/10 07:50:58;;;;;;;;;;;7.20;95.90;;;;;;5051613;28;19952;-62
2022/03/10 07:53:24;;;;;;;;;;;7.40;95.90;;;;;;5047980;28;20010;-62
2022/03/10 07:55:55;;;;;;;;;;;7.40;95.80;;;;;;5049557;28;19932;-62
2022/03/10 07:58:25;;;;;;;;;;;7.40;95.80;;;;;;5049920;28;19913;-62
2022/03/10 08:00:54;;;;;;;;;;;7.40;95.80;;;;;;5048357;28;19921;-61
2022/03/10 08:03:22;;;;;;;;;;;7.50;95.80;;;;;;5050562;28;20008;-61
2022/03/10 08:05:50;;;;;;;;;;;7.50;95.60;;;;;;5064192;28;20026;-62
2022/03/10 08:08:16;;;;;;;;;;;7.60;95.50;;;;;;5049280;28;19916;-63
2022/03/10 08:10:41;;;;;;;;;;;7.80;95.70;;;;;;5049260;28;19970;-63
2022/03/10 08:13:07;;;;;;;;;;;7.80;95.60;;;;;;5049566;28;20374;-61
2022/03/10 08:15:32;;;;;;;;;;;7.90;95.70;;;;;;5043384;28;19917;-62
2022/03/10 08:17:58;;;;;;;;;;;7.90;95.50;;;;;;5050777;28;19917;-62
2022/03/10 08:20:23;;;;;;;;;;;7.90;95.50;;;;;;5048301;28;20512;-61
2022/03/10 08:22:49;;;;;;;;;;;8.10;95.60;;;;;;5048477;28;19919;-62
2022/03/10 08:25:15;;;;;;;;;;;8.10;95.40;;;;;;5049541;28;19944;-63
2022/03/10 08:27:40;;;;;;;;;;;8.10;95.40;;;;;;5049120;28;20011;-63
2022/03/10 08:30:06;;;;;;;;;;;8.20;95.50;;;;;;5049297;28;20431;-61
2022/03/10 08:32:32;;;;;;;;;;;8.20;95.40;;;;;;5049468;28;20283;-63
2022/03/10 08:34:57;;;;;;;;;;;8.20;95.40;;;;;;5049410;28;20377;-62
2022/03/10 08:37:23;;;;;;;;;;;8.30;95.50;;;;;;5048590;28;19928;-64
2022/03/10 08:39:48;;;;;;;;;;;8.30;95.40;;;;;;5049438;28;20507;-63
2022/03/10 08:42:14;;;;;;;;;;;8.30;95.70;;;;;;5049711;28;19955;-63
2022/03/10 08:44:40;;;;;;;;;;;8.30;95.60;;;;;;5050189;28;19920;-62
2022/03/10 08:47:05;;;;;;;;;;;8.40;95.50;;;;;;5049385;28;19951;-63
2022/03/10 08:49:31;;;;;;;;;;;8.50;95.60;;;;;;5048214;28;19913;-63
2022/03/10 08:51:56;;;;;;;;;;;8.60;95.50;;;;;;5047893;28;20344;-63
2022/03/10 08:54:22;;;;;;;;;;;8.70;95.60;;;;;;5048812;28;20003;-63
2022/03/10 08:56:48;;;;;;;;;;;8.80;95.50;;;;;;5049547;28;20393;-62
2022/03/10 08:59:13;;;;;;;;;;;8.80;95.50;;;;;;5049125;28;19927;-64
2022/03/10 09:01:40;;;;;;;;;;;8.90;95.50;;;;;;5048848;28;19912;-61
2022/03/10 09:04:05;;;;;;;;;;;9.00;95.40;;;;;;5048970;28;20266;-62
2022/03/10 09:06:32;;;;;;;;;;;9.10;95.30;;;;;;5046974;28;19920;-63
2022/03/10 09:08:57;;;;;;;;;;;9.10;95.40;;;;;;5050059;28;19916;-63
2022/03/10 09:11:24;;;;;;;;;;;9.20;95.50;;;;;;5048624;28;19920;-64
2022/03/10 09:13:49;;;;;;;;;;;9.30;95.30;;;;;;5048865;28;19920;-64
2022/03/10 09:16:18;;;;;;;;;;;9.30;95.60;;;;;;5048473;28;20285;-63
2022/03/10 09:18:45;;;;;;;;;;;9.30;95.40;;;;;;5046968;28;20387;-65
2022/03/10 09:21:11;;;;;;;;;;;9.30;95.50;;;;;;5049738;28;20047;-62
2022/03/10 09:23:36;;;;;;;;;;;9.40;95.30;;;;;;5048351;28;19917;-63
2022/03/10 09:26:02;;;;;;;;;;;9.50;95.50;;;;;;5047583;28;20262;-61
2022/03/10 09:28:27;;;;;;;;;;;9.60;95.60;;;;;;5047915;28;19927;-63
2022/03/10 09:30:53;;;;;;;;;;;9.60;95.40;;;;;;5047861;28;19932;-63
2022/03/10 09:33:18;;;;;;;;;;;9.70;95.50;;;;;;5048845;28;19928;-63
2022/03/10 09:35:44;;;;;;;;;;;9.80;95.30;;;;;;5048810;28;20381;-63
2022/03/10 09:38:10;;;;;;;;;;;9.80;95.20;;;;;;5048246;28;19999;-62
2022/03/10 09:40:36;;;;;;;;;;;9.90;95.20;;;;;;5047576;28;19960;-64
2022/03/10 09:43:01;;;;;;;;;;;9.90;95.30;;;;;;5047016;28;20389;-63
2022/03/10 09:45:28;;;;;;;;;;;10.00;95.30;;;;;;5047765;28;19916;-62
2022/03/10 09:47:54;;;;;;;;;;;10.00;94.90;;;;;;5049318;28;19920;-64
2022/03/10 09:50:19;;;;;;;;;;;10.10;95.10;;;;;;5047676;28;19917;-63
2022/03/10 09:52:46;;;;;;;;;;;10.20;95.40;;;;;;5047225;28;19992;-63
2022/03/10 09:55:13;;;;;;;;;;;10.30;94.90;;;;;;5047861;28;19944;-62
2022/03/10 09:57:42;;;;;;;;;;;10.30;94.80;;;;;;5038298;28;19994;-64
2022/03/10 10:00:10;;;;;;;;;;;10.50;94.80;;;;;;5048922;28;20401;-61
2022/03/10 10:02:37;;;;;;;;;;;10.60;94.50;;;;;;5047693;28;19920;-63
2022/03/10 10:05:17;;;;;;;;;;;10.60;94.50;;;;;;5047609;28;19913;-63
2022/03/10 10:07:58;;;;;;;;;;;10.70;94.60;;;;;;5048039;28;20338;-62
2022/03/10 10:10:28;;;;;;;;;;;10.80;94.20;;;;;;5045218;28;20123;-64
2022/03/10 10:12:53;;;;;;;;;;;10.80;94.70;;;;;;5048077;28;20034;-64
2022/03/10 10:15:19;;;;;;;;;;;10.90;94.50;;;;;;5047530;28;19913;-63
2022/03/10 10:17:44;;;;;;;;;;;10.90;94.70;;;;;;5047603;28;19912;-63
2022/03/10 10:20:10;;;;;;;;;;;10.90;94.70;;;;;;5046932;28;20016;-62
2022/03/10 10:22:36;;;;;;;;;;;11.00;94.80;;;;;;5047103;28;20757;-62
2022/03/10 10:25:02;;;;;;;;;;;11.10;94.30;;;;;;5046079;28;19924;-63
2022/03/10 10:27:29;;;;;;;;;;;11.20;94.50;;;;;;5047141;28;19955;-63
2022/03/10 10:29:56;;;;;;;;;;;11.30;94.20;;;;;;5048217;28;19913;-63
2022/03/10 10:32:35;;;;;;;;;;;11.30;94.20;;;;;;5046961;28;19923;-61
2022/03/10 10:35:01;;;;;;;;;;;11.40;93.80;;;;;;5047953;28;19959;-62
2022/03/10 10:37:27;;;;;;;;;;;11.60;94.00;;;;;;5047794;28;19916;-60
2022/03/10 10:39:53;;;;;;;;;;;11.60;93.90;;;;;;5045451;28;20356;-60
2022/03/10 10:42:18;;;;;;;;;;;11.70;93.90;;;;;;5047665;28;20293;-61
2022/03/10 10:44:44;;;;;;;;;;;11.70;93.90;;;;;;5048566;28;19916;-62
2022/03/10 10:47:09;;;;;;;;;;;11.80;93.60;;;;;;5047568;28;19913;-60
2022/03/10 10:49:35;;;;;;;;;;;11.80;94.10;;;;;;5047073;28;20817;-60
2022/03/10 10:52:01;;;;;;;;;;;11.90;93.70;;;;;;5047630;28;19913;-60
2022/03/10 10:54:28;;;;;;;;;;;11.90;93.50;;;;;;5046965;28;20004;-59
2022/03/10 10:56:55;;;;;;;;;;;12.00;93.00;;;;;;5048241;28;20003;-62
2022/03/10 10:59:27;;;;;;;;;;;12.20;93.50;;;;;;5047108;28;19917;-61
2022/03/10 11:02:03;;;;;;;;;;;12.30;93.40;;;;;;5046467;28;19913;-60
2022/03/10 11:04:30;;;;;;;;;;;12.30;93.30;;;;;;5046890;28;20404;-61
2022/03/10 11:06:56;;;;;;;;;;;12.40;93.00;;;;;;5047396;28;20653;-60
2022/03/10 11:09:22;;;;;;;;;;;12.50;91.80;;;;;;5047514;28;19938;-59
2022/03/10 11:11:48;;;;;;;;;;;12.50;92.80;;;;;;5048618;28;19970;-60
2022/03/10 11:14:13;;;;;;;;;;;12.60;92.70;;;;;;5047195;28;19966;-59
2022/03/10 11:16:41;;;;;;;;;;;12.70;92.80;;;;;;5047085;28;19916;-59
2022/03/10 11:19:10;;;;;;;;;;;12.70;92.60;;;;;;5047643;28;19963;-60
2022/03/10 11:21:41;;;;;;;;;;;12.80;92.70;;;;;;5047084;28;19959;-60
2022/03/10 11:24:06;;;;;;;;;;;12.80;92.80;;;;;;5042016;28;19913;-59
2022/03/10 11:26:46;;;;;;;;;;;12.80;92.30;;;;;;5047215;28;19939;-60
2022/03/10 11:29:15;;;;;;;;;;;12.90;92.50;;;;;;5047353;28;19913;-60
2022/03/10 11:31:41;;;;;;;;;;;12.90;92.50;;;;;;5046491;28;20011;-60
2022/03/10 11:34:07;;;;;;;;;;;13.00;92.40;;;;;;5046892;28;20003;-58
2022/03/10 11:36:32;;;;;;;;;;;13.00;92.50;;;;;;5045444;28;20055;-59
2022/03/10 11:38:59;;;;;;;;;;;13.10;91.70;;;;;;5048329;28;20039;-59
2022/03/10 11:41:40;;;;;;;;;;;13.30;91.40;;;;;;5048635;28;19967;-60
2022/03/10 11:44:06;;;;;;;;;;;13.30;92.30;;;;;;5049435;28;19948;-61
2022/03/10 11:46:31;;;;;;;;;;;13.50;90.60;;;;;;5050076;28;19920;-58
2022/03/10 11:49:00;;;;;;;;;;;13.50;91.40;;;;;;5050775;28;20455;-59
2022/03/10 11:51:40;;;;;;;;;;;13.60;90.60;;;;;;5050440;28;19913;-59
2022/03/10 11:54:06;;;;;;;;;;;13.60;91.10;;;;;;5051491;28;19959;-59
2022/03/10 11:56:44;;;;;;;;;;;13.70;91.50;;;;;;5050089;28;20015;-60
2022/03/10 11:59:22;;;;;;;;;;;13.70;91.70;;;;;;5049394;28;19920;-59
2022/03/10 12:01:47;;;;;;;;;;;13.70;91.50;;;;;;5050267;28;20400;-60
2022/03/10 12:04:15;;;;;;;;;;;13.70;91.50;;;;;;5050252;28;19913;-59
2022/03/10 12:06:46;;;;;;;;;;;13.70;91.10;;;;;;5049965;28;19917;-59
2022/03/10 12:09:24;;;;;;;;;;;13.70;90.90;;;;;;5051589;28;20377;-59
2022/03/10 12:11:51;;;;;;;;;;;13.80;90.80;;;;;;5050950;28;19935;-58
2022/03/10 12:14:24;;;;;;;;;;;13.80;90.90;;;;;;5049226;28;19916;-60
2022/03/10 12:16:49;;;;;;;;;;;13.90;90.20;;;;;;5049245;28;20012;-59
2022/03/10 12:19:15;;;;;;;;;;;13.80;90.30;;;;;;5050453;28;20338;-60
2022/03/10 12:21:41;;;;;;;;;;;13.80;90.50;;;;;;5049912;28;19913;-60
2022/03/10 12:24:07;;;;;;;;;;;13.80;90.60;;;;;;5050935;28;19948;-59
2022/03/10 12:26:36;;;;;;;;;;;13.80;90.30;;;;;;5049804;28;20364;-60
2022/03/10 12:29:06;;;;;;;;;;;14.00;90.60;;;;;;5049254;28;19920;-59
2022/03/10 12:31:33;;;;;;;;;;;14.00;90.10;;;;;;5049078;28;20016;-59
2022/03/10 12:34:00;;;;;;;;;;;14.00;90.30;;;;;;5047379;28;20047;-62
2022/03/10 12:36:33;;;;;;;;;;;14.00;89.40;;;;;;5049782;28;19912;-59
2022/03/10 12:39:07;;;;;;;;;;;13.90;89.30;;;;;;5049416;28;20029;-59
2022/03/10 12:41:40;;;;;;;;;;;13.90;89.60;;;;;;5048759;28;19928;-61
2022/03/10 12:44:06;;;;;;;;;;;14.00;89.30;;;;;;5049348;28;20300;-60
2022/03/10 12:46:33;;;;;;;;;;;14.00;89.30;;;;;;5049001;28;19920;-58
2022/03/10 12:49:02;;;;;;;;;;;14.10;88.90;;;;;;5047863;28;20412;-58
2022/03/10 12:51:29;;;;;;;;;;;14.20;90.00;;;;;;5048833;28;19912;-63
2022/03/10 12:53:55;;;;;;;;;;;14.20;88.90;;;;;;5049603;28;20717;-58
2022/03/10 12:56:21;;;;;;;;;;;14.30;87.00;;;;;;5047492;28;19927;-58
2022/03/10 12:58:47;;;;;;;;;;;14.20;87.60;;;;;;5048596;28;20003;-58
2022/03/10 13:01:13;;;;;;;;;;;14.40;88.70;;;;;;5049130;28;19917;-58
2022/03/10 13:03:47;;;;;;;;;;;14.50;88.00;;;;;;5049362;28;23714;-59
2022/03/10 13:06:13;;;;;;;;;;;14.60;85.70;;;;;;5049989;28;20003;-59
2022/03/10 13:08:42;;;;;;;;;;;14.50;84.30;;;;;;5048916;28;20019;-60
2022/03/10 13:11:08;;;;;;;;;;;14.40;85.90;;;;;;5048815;28;19947;-60
2022/03/10 13:13:33;;;;;;;;;;;14.40;86.00;;;;;;5048647;28;19921;-61
2022/03/10 13:16:03;;;;;;;;;;;14.40;87.40;;;;;;5048902;28;20335;-59
2022/03/10 13:18:38;;;;;;;;;;;14.40;87.30;;;;;;5050168;28;19962;-60
2022/03/10 13:21:05;;;;;;;;;;;14.60;85.00;;;;;;5051432;28;19913;-60
2022/03/10 13:23:30;;;;;;;;;;;14.70;85.70;;;;;;5048276;28;19919;-60
2022/03/10 13:25:56;;;;;;;;;;;14.70;85.70;;;;;;5049405;28;19913;-60
2022/03/10 13:28:24;;;;;;;;;;;14.70;85.30;;;;;;5048683;28;20419;-60
2022/03/10 13:30:50;;;;;;;;;;;14.70;84.50;;;;;;5050218;28;20340;-60
2022/03/10 13:33:17;;;;;;;;;;;14.70;83.90;;;;;;5051101;28;19908;-60
2022/03/10 13:35:49;;;;;;;;;;;14.60;83.80;;;;;;5050812;28;19909;-60
2022/03/10 13:38:18;;;;;;;;;;;14.60;84.50;;;;;;5048169;28;19913;-60
2022/03/10 13:40:43;;;;;;;;;;;14.60;83.60;;;;;;5047587;28;20309;-60
2022/03/10 13:43:19;;;;;;;;;;;14.60;83.90;;;;;;5049515;28;19932;-60
2022/03/10 13:45:44;;;;;;;;;;;14.60;82.20;;;;;;5032844;28;19916;-61
2022/03/10 13:48:20;;;;;;;;;;;14.70;81.10;;;;;;5051852;28;20258;-59
2022/03/10 13:50:46;;;;;;;;;;;14.80;79.10;;;;;;5050500;28;20006;-61
2022/03/10 13:53:11;;;;;;;;;;;14.80;79.90;;;;;;5049426;28;19948;-59
2022/03/10 13:55:46;;;;;;;;;;;14.90;81.10;;;;;;5052012;28;19921;-61
2022/03/10 13:58:12;;;;;;;;;;;14.90;82.90;;;;;;5050842;28;19912;-60
2022/03/10 14:00:41;;;;;;;;;;;15.00;81.10;;;;;;5050254;28;20453;-61
2022/03/10 14:03:12;;;;;;;;;;;14.90;80.20;;;;;;5051358;28;20403;-60
2022/03/10 14:05:38;;;;;;;;;;;15.00;81.90;;;;;;5051133;28;19936;-60
2022/03/10 14:08:11;;;;;;;;;;;15.00;79.20;;;;;;5050340;28;20006;-61
2022/03/10 14:10:37;;;;;;;;;;;15.00;79.00;;;;;;5049885;28;20369;-60
2022/03/10 14:13:02;;;;;;;;;;;15.10;80.10;;;;;;5050647;28;19912;-61
2022/03/10 14:15:32;;;;;;;;;;;15.10;79.60;;;;;;5049364;28;19956;-60
2022/03/10 14:17:58;;;;;;;;;;;15.10;77.90;;;;;;5051430;28;19909;-59
2022/03/10 14:20:43;;;;;;;;;;;15.30;74.90;;;;;;5049577;28;19928;-61
2022/03/10 14:23:09;;;;;;;;;;;15.30;77.40;;;;;;5046158;28;19917;-61
2022/03/10 14:25:53;;;;;;;;;;;15.30;75.40;;;;;;5050307;28;20011;-61
2022/03/10 14:28:25;;;;;;;;;;;15.40;75.00;;;;;;5050021;28;19916;-60